sensor_id;sensor_type;location;lat;lon;timestamp;pressure;altitude;pressure_sealevel;temperature;humidity
22964;BME280;11648;49.306;6.934;2022-09-17T00:02:00;98234.06;;;15.26;59.59
22964;BME280;11648;49.306;6.934;2022-09-17T00:04:33;98236.22;;;15.13;59.58
22964;BME280;11648;49.306;6.934;2022-09-17T00:07:00;98242.44;;;15.12;60.16
22964;BME280;11648;49.306;6.934;2022-09-17T00:09:29;98232.81;;;15.10;59.91
22964;BME280;11648;49.306;6.934;2022-09-17T00:11:56;98235.66;;;15.04;60.38
22964;BME280;11648;49.306;6.934;2022-09-17T00:14:30;98235.25;;;14.90;60.48
22964;BME280;11648;49.306;6.934;2022-09-17T00:16:57;98230.03;;;14.87;60.58
22964;BME280;11648;49.306;6.934;2022-09-17T00:19:29;98234.38;;;14.89;60.52
22964;BME280;11648;49.306;6.934;2022-09-17T00:22:03;98230.28;;;14.79;60.82
22964;BME280;11648;49.306;6.934;2022-09-17T00:24:32;98235.19;;;14.91;61.15
22964;BME280;11648;49.306;6.934;2022-09-17T00:27:01;98235.19;;;14.91;60.89
22964;BME280;11648;49.306;6.934;2022-09-17T00:29:29;98227.47;;;14.83;61.16
22964;BME280;11648;49.306;6.934;2022-09-17T00:31:57;98231.09;;;14.81;61.14
22964;BME280;11648;49.306;6.934;2022-09-17T00:34:26;98237.28;;;14.80;61.22
22964;BME280;11648;49.306;6.934;2022-09-17T00:36:56;98239.13;;;14.78;61.07
22964;BME280;11648;49.306;6.934;2022-09-17T00:39:30;98237.50;;;14.74;61.45
22964;BME280;11648;49.306;6.934;2022-09-17T00:42:02;98227.19;;;14.65;61.59
22964;BME280;11648;49.306;6.934;2022-09-17T00:47:35;98228.31;;;14.58;61.79
22964;BME280;11648;49.306;6.934;2022-09-17T00:52:38;98216.72;;;14.31;62.89
22964;BME280;11648;49.306;6.934;2022-09-17T00:55:16;98217.59;;;14.31;62.80
22964;BME280;11648;49.306;6.934;2022-09-17T00:57:53;98227.53;;;14.23;63.09
22964;BME280;11648;49.306;6.934;2022-09-17T01:00:25;98222.50;;;14.14;63.27
22964;BME280;11648;49.306;6.934;2022-09-17T01:02:53;98234.88;;;14.14;63.06
22964;BME280;11648;49.306;6.934;2022-09-17T01:11:12;98239.03;;;13.92;64.18
22964;BME280;11648;49.306;6.934;2022-09-17T01:32:37;98255.19;;;14.13;63.38
22964;BME280;11648;49.306;6.934;2022-09-17T01:35:32;98262.91;;;14.21;63.03
22964;BME280;11648;49.306;6.934;2022-09-17T01:41:29;98268.69;;;14.35;63.17
22964;BME280;11648;49.306;6.934;2022-09-17T01:46:51;98269.19;;;14.48;62.57
22964;BME280;11648;49.306;6.934;2022-09-17T01:49:22;98263.06;;;14.47;63.02
22964;BME280;11648;49.306;6.934;2022-09-17T01:52:08;98270.81;;;14.53;62.67
22964;BME280;11648;49.306;6.934;2022-09-17T01:54:49;98268.72;;;14.64;62.14
22964;BME280;11648;49.306;6.934;2022-09-17T01:57:35;98264.91;;;14.73;61.99
22964;BME280;11648;49.306;6.934;2022-09-17T02:00:10;98255.94;;;14.77;61.81
22964;BME280;11648;49.306;6.934;2022-09-17T02:03:04;98258.66;;;14.75;61.97
22964;BME280;11648;49.306;6.934;2022-09-17T02:05:48;98255.94;;;14.77;62.07
22964;BME280;11648;49.306;6.934;2022-09-17T02:08:26;98258.31;;;14.58;61.95
22964;BME280;11648;49.306;6.934;2022-09-17T02:11:07;98250.97;;;14.66;62.07
22964;BME280;11648;49.306;6.934;2022-09-17T02:13:56;98251.16;;;14.62;61.74
22964;BME280;11648;49.306;6.934;2022-09-17T02:16:33;98249.44;;;14.59;62.01
22964;BME280;11648;49.306;6.934;2022-09-17T02:19:26;98251.38;;;14.54;62.23
22964;BME280;11648;49.306;6.934;2022-09-17T02:30:14;98255.56;;;14.61;62.29
22964;BME280;11648;49.306;6.934;2022-09-17T02:32:42;98246.19;;;14.50;62.66
22964;BME280;11648;49.306;6.934;2022-09-17T02:35:12;98255.19;;;14.44;63.00
22964;BME280;11648;49.306;6.934;2022-09-17T02:37:41;98258.22;;;14.30;63.34
22964;BME280;11648;49.306;6.934;2022-09-17T02:40:11;98247.16;;;14.47;62.62
22964;BME280;11648;49.306;6.934;2022-09-17T02:59:50;98259.63;;;14.44;62.86
22964;BME280;11648;49.306;6.934;2022-09-17T03:05:24;98270.63;;;14.59;62.21
22964;BME280;11648;49.306;6.934;2022-09-17T03:07:56;98266.88;;;14.66;62.38
22964;BME280;11648;49.306;6.934;2022-09-17T03:10:26;98278.09;;;14.76;62.07
22964;BME280;11648;49.306;6.934;2022-09-17T03:13:03;98265.59;;;14.79;61.47
22964;BME280;11648;49.306;6.934;2022-09-17T03:15:33;98271.72;;;14.81;61.60
22964;BME280;11648;49.306;6.934;2022-09-17T03:18:03;98276.09;;;14.82;61.75
22964;BME280;11648;49.306;6.934;2022-09-17T03:20:34;98277.69;;;14.88;61.48
22964;BME280;11648;49.306;6.934;2022-09-17T03:23:03;98276.00;;;14.86;61.04
22964;BME280;11648;49.306;6.934;2022-09-17T03:25:33;98270.50;;;14.92;60.94
22964;BME280;11648;49.306;6.934;2022-09-17T03:28:10;98277.59;;;14.91;61.23
22964;BME280;11648;49.306;6.934;2022-09-17T03:30:45;98278.53;;;14.90;60.54
22964;BME280;11648;49.306;6.934;2022-09-17T03:33:21;98276.53;;;14.97;60.89
22964;BME280;11648;49.306;6.934;2022-09-17T03:35:49;98273.91;;;14.97;60.64
22964;BME280;11648;49.306;6.934;2022-09-17T03:38:17;98271.19;;;14.98;60.38
22964;BME280;11648;49.306;6.934;2022-09-17T03:41:02;98272.22;;;14.94;60.82
22964;BME280;11648;49.306;6.934;2022-09-17T03:43:32;98260.75;;;14.94;60.66
22964;BME280;11648;49.306;6.934;2022-09-17T03:46:02;98270.84;;;14.81;60.61
22964;BME280;11648;49.306;6.934;2022-09-17T03:48:32;98275.09;;;14.87;60.62
22964;BME280;11648;49.306;6.934;2022-09-17T03:51:04;98276.91;;;14.84;60.30
22964;BME280;11648;49.306;6.934;2022-09-17T03:53:34;98273.50;;;14.81;60.69
22964;BME280;11648;49.306;6.934;2022-09-17T03:56:03;98271.91;;;14.75;60.93
22964;BME280;11648;49.306;6.934;2022-09-17T03:58:32;98275.56;;;14.71;60.62
22964;BME280;11648;49.306;6.934;2022-09-17T04:00:59;98284.22;;;14.76;60.90
22964;BME280;11648;49.306;6.934;2022-09-17T04:03:34;98285.31;;;14.69;61.23
22964;BME280;11648;49.306;6.934;2022-09-17T04:06:02;98298.25;;;14.80;60.99
22964;BME280;11648;49.306;6.934;2022-09-17T04:08:40;98294.66;;;14.82;60.94
22964;BME280;11648;49.306;6.934;2022-09-17T04:11:12;98294.78;;;14.78;60.75
22964;BME280;11648;49.306;6.934;2022-09-17T04:13:44;98304.06;;;14.63;60.97
22964;BME280;11648;49.306;6.934;2022-09-17T04:16:16;98296.56;;;14.77;61.15
22964;BME280;11648;49.306;6.934;2022-09-17T04:18:48;98298.44;;;14.74;61.15
22964;BME280;11648;49.306;6.934;2022-09-17T04:21:15;98299.34;;;14.73;60.88
22964;BME280;11648;49.306;6.934;2022-09-17T04:23:42;98296.84;;;14.68;61.15
22964;BME280;11648;49.306;6.934;2022-09-17T04:26:10;98295.97;;;14.68;61.14
22964;BME280;11648;49.306;6.934;2022-09-17T04:28:36;98302.97;;;14.70;60.85
22964;BME280;11648;49.306;6.934;2022-09-17T04:31:06;98300.41;;;14.67;61.04
22964;BME280;11648;49.306;6.934;2022-09-17T04:33:33;98300.41;;;14.67;61.41
22964;BME280;11648;49.306;6.934;2022-09-17T04:36:00;98296.91;;;14.67;61.29
22964;BME280;11648;49.306;6.934;2022-09-17T04:38:27;98303.03;;;14.69;61.27
22964;BME280;11648;49.306;6.934;2022-09-17T04:40:53;98306.53;;;14.69;61.31
22964;BME280;11648;49.306;6.934;2022-09-17T04:43:22;98304.75;;;14.70;61.26
22964;BME280;11648;49.306;6.934;2022-09-17T04:45:50;98301.97;;;14.74;61.46
22964;BME280;11648;49.306;6.934;2022-09-17T04:48:17;98301.16;;;14.72;61.35
22964;BME280;11648;49.306;6.934;2022-09-17T04:50:43;98306.34;;;14.75;61.03
22964;BME280;11648;49.306;6.934;2022-09-17T04:53:10;98308.22;;;14.72;61.35
22964;BME280;11648;49.306;6.934;2022-09-17T04:55:38;98318.88;;;14.70;61.47
22964;BME280;11648;49.306;6.934;2022-09-17T04:58:05;98316.66;;;14.55;61.82
22964;BME280;11648;49.306;6.934;2022-09-17T05:00:31;98324.38;;;14.63;61.62
22964;BME280;11648;49.306;6.934;2022-09-17T05:02:59;98323.56;;;14.61;62.00
22964;BME280;11648;49.306;6.934;2022-09-17T05:05:26;98328.13;;;14.56;61.99
22964;BME280;11648;49.306;6.934;2022-09-17T05:07:53;98323.50;;;14.62;61.40
22964;BME280;11648;49.306;6.934;2022-09-17T05:10:21;98325.38;;;14.59;61.78
22964;BME280;11648;49.306;6.934;2022-09-17T05:12:53;98324.38;;;14.63;61.95
22964;BME280;11648;49.306;6.934;2022-09-17T05:15:21;98327.44;;;14.49;62.13
22964;BME280;11648;49.306;6.934;2022-09-17T05:17:49;98335.03;;;14.61;61.84
22964;BME280;11648;49.306;6.934;2022-09-17T05:20:16;98333.94;;;14.68;61.66
22964;BME280;11648;49.306;6.934;2022-09-17T05:22:44;98324.13;;;14.72;61.52
22964;BME280;11648;49.306;6.934;2022-09-17T05:25:13;98325.81;;;14.74;61.74
22964;BME280;11648;49.306;6.934;2022-09-17T05:27:40;98324.03;;;14.75;61.32
22964;BME280;11648;49.306;6.934;2022-09-17T05:30:08;98327.56;;;14.75;61.45
22964;BME280;11648;49.306;6.934;2022-09-17T05:32:35;98326.59;;;14.78;61.09
22964;BME280;11648;49.306;6.934;2022-09-17T05:35:03;98332.53;;;14.86;61.00
22964;BME280;11648;49.306;6.934;2022-09-17T05:37:31;98333.47;;;14.83;61.36
22964;BME280;11648;49.306;6.934;2022-09-17T05:39:58;98344.94;;;14.84;61.12
22964;BME280;11648;49.306;6.934;2022-09-17T05:42:25;98345.94;;;14.80;61.41
22964;BME280;11648;49.306;6.934;2022-09-17T05:44:52;98337.06;;;14.82;61.48
22964;BME280;11648;49.306;6.934;2022-09-17T05:47:19;98347.66;;;14.82;61.00
22964;BME280;11648;49.306;6.934;2022-09-17T05:49:45;98346.44;;;14.94;61.00
22964;BME280;11648;49.306;6.934;2022-09-17T05:52:12;98356.16;;;14.94;60.89
22964;BME280;11648;49.306;6.934;2022-09-17T05:54:39;98353.63;;;14.91;60.90
22964;BME280;11648;49.306;6.934;2022-09-17T05:57:06;98357.97;;;14.92;61.14
22964;BME280;11648;49.306;6.934;2022-09-17T05:59:33;98361.63;;;14.88;60.78
22964;BME280;11648;49.306;6.934;2022-09-17T06:02:00;98354.69;;;14.83;60.96
22964;BME280;11648;49.306;6.934;2022-09-17T06:04:27;98364.03;;;14.97;61.18
22964;BME280;11648;49.306;6.934;2022-09-17T06:07:03;98371.56;;;15.10;60.91
22964;BME280;11648;49.306;6.934;2022-09-17T06:09:30;98369.25;;;15.27;60.28
22964;BME280;11648;49.306;6.934;2022-09-17T06:11:57;98372.56;;;15.34;60.24
22964;BME280;11648;49.306;6.934;2022-09-17T06:14:23;98371.06;;;15.55;59.81
22964;BME280;11648;49.306;6.934;2022-09-17T06:16:50;98367.22;;;15.63;59.66
22964;BME280;11648;49.306;6.934;2022-09-17T06:19:17;98366.75;;;15.78;59.34
22964;BME280;11648;49.306;6.934;2022-09-17T06:21:45;98373.56;;;15.86;59.01
22964;BME280;11648;49.306;6.934;2022-09-17T06:24:12;98359.69;;;16.28;58.23
22964;BME280;11648;49.306;6.934;2022-09-17T06:26:39;98356.28;;;16.98;55.83
22964;BME280;11648;49.306;6.934;2022-09-17T06:29:06;98364.25;;;17.43;54.11
22964;BME280;11648;49.306;6.934;2022-09-17T06:31:33;98359.25;;;17.78;53.02
22964;BME280;11648;49.306;6.934;2022-09-17T06:33:59;98349.19;;;17.65;52.84
22964;BME280;11648;49.306;6.934;2022-09-17T06:36:27;98351.41;;;17.75;52.88
22964;BME280;11648;49.306;6.934;2022-09-17T06:38:54;98366.06;;;17.86;52.61
22964;BME280;11648;49.306;6.934;2022-09-17T06:41:20;98349.84;;;18.32;51.83
22964;BME280;11648;49.306;6.934;2022-09-17T06:43:47;98343.94;;;19.42;49.61
22964;BME280;11648;49.306;6.934;2022-09-17T06:46:17;98335.69;;;20.51;47.35
22964;BME280;11648;49.306;6.934;2022-09-17T06:48:44;98338.69;;;21.74;44.70
22964;BME280;11648;49.306;6.934;2022-09-17T06:51:11;98330.06;;;22.88;41.65
22964;BME280;11648;49.306;6.934;2022-09-17T06:53:38;98317.72;;;23.81;39.97
22964;BME280;11648;49.306;6.934;2022-09-17T06:56:08;98299.03;;;24.44;38.10
22964;BME280;11648;49.306;6.934;2022-09-17T06:58:36;98303.91;;;25.51;35.90
22964;BME280;11648;49.306;6.934;2022-09-17T07:01:04;98305.91;;;26.08;34.78
22964;BME280;11648;49.306;6.934;2022-09-17T07:03:31;98308.47;;;26.22;34.44
22964;BME280;11648;49.306;6.934;2022-09-17T07:05:58;98302.34;;;27.11;32.76
22964;BME280;11648;49.306;6.934;2022-09-17T07:08:25;98306.28;;;27.51;32.03
22964;BME280;11648;49.306;6.934;2022-09-17T07:10:55;98320.78;;;27.17;33.05
22964;BME280;11648;49.306;6.934;2022-09-17T07:13:23;98331.09;;;26.43;33.97
22964;BME280;11648;49.306;6.934;2022-09-17T07:15:54;98332.94;;;25.23;35.68
22964;BME280;11648;49.306;6.934;2022-09-17T07:18:22;98343.09;;;23.90;37.90
22964;BME280;11648;49.306;6.934;2022-09-17T07:20:57;98355.25;;;22.71;40.37
22964;BME280;11648;49.306;6.934;2022-09-17T07:23:26;98364.72;;;22.03;41.97
22964;BME280;11648;49.306;6.934;2022-09-17T07:25:55;98369.31;;;21.05;43.61
22964;BME280;11648;49.306;6.934;2022-09-17T07:28:23;98379.19;;;20.38;44.76
22964;BME280;11648;49.306;6.934;2022-09-17T07:30:51;98384.34;;;19.89;46.96
22964;BME280;11648;49.306;6.934;2022-09-17T07:33:22;98383.44;;;20.42;46.04
22964;BME280;11648;49.306;6.934;2022-09-17T07:35:53;98380.75;;;20.76;45.18
22964;BME280;11648;49.306;6.934;2022-09-17T07:38:20;98385.19;;;20.43;45.00
22964;BME280;11648;49.306;6.934;2022-09-17T07:43:21;98377.59;;;21.18;43.79
22964;BME280;11648;49.306;6.934;2022-09-17T07:45:48;98377.88;;;20.96;44.24
22964;BME280;11648;49.306;6.934;2022-09-17T07:48:14;98383.84;;;20.68;44.77
22964;BME280;11648;49.306;6.934;2022-09-17T07:50:42;98382.75;;;20.38;45.42
22964;BME280;11648;49.306;6.934;2022-09-17T07:53:09;98383.75;;;20.18;45.66
22964;BME280;11648;49.306;6.934;2022-09-17T07:55:35;98389.41;;;20.30;45.91
22964;BME280;11648;49.306;6.934;2022-09-17T07:58:02;98378.03;;;20.43;45.69
22964;BME280;11648;49.306;6.934;2022-09-17T08:00:29;98378.50;;;21.01;45.30
22964;BME280;11648;49.306;6.934;2022-09-17T08:02:56;98373.59;;;22.19;42.29
22964;BME280;11648;49.306;6.934;2022-09-17T08:05:23;98358.59;;;23.17;40.54
22964;BME280;11648;49.306;6.934;2022-09-17T08:07:51;98345.34;;;24.10;38.80
22964;BME280;11648;49.306;6.934;2022-09-17T08:10:19;98347.00;;;23.72;38.76
22964;BME280;11648;49.306;6.934;2022-09-17T08:12:48;98353.47;;;23.96;38.40
22964;BME280;11648;49.306;6.934;2022-09-17T08:15:16;98354.94;;;23.32;39.36
22964;BME280;11648;49.306;6.934;2022-09-17T08:17:43;98357.25;;;22.82;40.62
22964;BME280;11648;49.306;6.934;2022-09-17T08:20:11;98357.56;;;24.01;38.48
22964;BME280;11648;49.306;6.934;2022-09-17T08:22:39;98349.28;;;25.45;36.15
22964;BME280;11648;49.306;6.934;2022-09-17T08:25:06;98350.53;;;25.28;35.98
22964;BME280;11648;49.306;6.934;2022-09-17T08:27:33;98354.06;;;24.66;36.75
22964;BME280;11648;49.306;6.934;2022-09-17T08:30:00;98353.19;;;25.53;35.67
22964;BME280;11648;49.306;6.934;2022-09-17T08:32:28;98341.88;;;27.67;33.42
22964;BME280;11648;49.306;6.934;2022-09-17T08:34:55;98326.47;;;29.25;29.83
22964;BME280;11648;49.306;6.934;2022-09-17T08:37:25;98330.28;;;28.30;31.06
22964;BME280;11648;49.306;6.934;2022-09-17T08:39:51;98343.88;;;27.65;31.40
22964;BME280;11648;49.306;6.934;2022-09-17T08:42:43;98340.06;;;27.45;31.92
22964;BME280;11648;49.306;6.934;2022-09-17T08:45:14;98336.25;;;28.86;29.60
22964;BME280;11648;49.306;6.934;2022-09-17T08:47:45;98351.00;;;27.22;31.77
22964;BME280;11648;49.306;6.934;2022-09-17T08:50:33;98357.06;;;26.68;32.93
22964;BME280;11648;49.306;6.934;2022-09-17T08:54:10;98369.03;;;26.18;34.06
22964;BME280;11648;49.306;6.934;2022-09-17T08:56:13;98381.44;;;26.21;33.68
22964;BME280;11648;49.306;6.934;2022-09-17T09:01:26;98389.72;;;23.76;37.78
22964;BME280;11648;49.306;6.934;2022-09-17T09:04:06;98394.97;;;22.94;39.11
22964;BME280;11648;49.306;6.934;2022-09-17T09:06:51;98395.16;;;22.77;40.29
22964;BME280;11648;49.306;6.934;2022-09-17T09:09:23;98381.81;;;24.53;37.15
22964;BME280;11648;49.306;6.934;2022-09-17T09:12:00;98366.28;;;25.71;34.64
22964;BME280;11648;49.306;6.934;2022-09-17T09:14:52;98362.19;;;25.65;34.48
22964;BME280;11648;49.306;6.934;2022-09-17T09:17:21;98362.13;;;25.41;35.15
22964;BME280;11648;49.306;6.934;2022-09-17T09:19:51;98358.72;;;25.76;34.61
22964;BME280;11648;49.306;6.934;2022-09-17T09:22:49;98357.41;;;26.64;33.80
22964;BME280;11648;49.306;6.934;2022-09-17T09:25:25;98344.84;;;26.51;32.87
22964;BME280;11648;49.306;6.934;2022-09-17T09:30:51;98370.06;;;24.94;36.33
22964;BME280;11648;49.306;6.934;2022-09-17T09:33:29;98371.94;;;24.15;36.28
22964;BME280;11648;49.306;6.934;2022-09-17T09:35:57;98378.13;;;23.76;37.08
22964;BME280;11648;49.306;6.934;2022-09-17T09:38:45;98385.84;;;23.11;38.59
22964;BME280;11648;49.306;6.934;2022-09-17T09:41:26;98387.19;;;23.04;39.32
22964;BME280;11648;49.306;6.934;2022-09-17T09:44:03;98385.75;;;23.55;39.00
22964;BME280;11648;49.306;6.934;2022-09-17T10:00:51;98402.25;;;22.48;40.95
22964;BME280;11648;49.306;6.934;2022-09-17T10:03:39;98422.06;;;21.69;44.63
22964;BME280;11648;49.306;6.934;2022-09-17T10:06:09;98418.09;;;21.12;45.86
22964;BME280;11648;49.306;6.934;2022-09-17T10:08:38;98419.13;;;20.92;48.13
22964;BME280;11648;49.306;6.934;2022-09-17T10:11:27;98426.50;;;20.54;48.23
22964;BME280;11648;49.306;6.934;2022-09-17T10:14:39;98429.94;;;20.39;49.17
22964;BME280;11648;49.306;6.934;2022-09-17T10:17:25;98424.38;;;20.44;49.45
22964;BME280;11648;49.306;6.934;2022-09-17T10:22:29;98417.50;;;20.38;48.08
22964;BME280;11648;49.306;6.934;2022-09-17T10:24:58;98428.84;;;20.43;47.61
22964;BME280;11648;49.306;6.934;2022-09-17T10:27:27;98413.75;;;21.58;44.88
22964;BME280;11648;49.306;6.934;2022-09-17T10:32:33;98381.91;;;23.86;39.01
22964;BME280;11648;49.306;6.934;2022-09-17T10:40:34;98369.09;;;25.69;35.11
22964;BME280;11648;49.306;6.934;2022-09-17T10:43:17;98372.72;;;25.19;35.83
22964;BME280;11648;49.306;6.934;2022-09-17T10:45:54;98387.28;;;24.91;36.38
22964;BME280;11648;49.306;6.934;2022-09-17T10:48:22;98370.66;;;24.59;36.52
22964;BME280;11648;49.306;6.934;2022-09-17T10:50:51;98380.53;;;24.46;36.61
22964;BME280;11648;49.306;6.934;2022-09-17T10:53:19;98373.09;;;24.50;36.02
22964;BME280;11648;49.306;6.934;2022-09-17T10:55:54;98376.44;;;24.41;35.39
22964;BME280;11648;49.306;6.934;2022-09-17T11:03:51;98358.00;;;24.87;33.45
22964;BME280;11648;49.306;6.934;2022-09-17T11:09:23;98368.75;;;23.40;36.10
22964;BME280;11648;49.306;6.934;2022-09-17T11:16:08;98350.34;;;25.06;34.03
22964;BME280;11648;49.306;6.934;2022-09-17T11:18:28;98324.09;;;26.87;30.88
22964;BME280;11648;49.306;6.934;2022-09-17T11:26:37;98355.91;;;24.65;36.27
22964;BME280;11648;49.306;6.934;2022-09-17T11:29:21;98363.66;;;23.36;39.28
22964;BME280;11648;49.306;6.934;2022-09-17T11:34:56;98347.63;;;24.81;37.14
22964;BME280;11648;49.306;6.934;2022-09-17T11:37:37;98343.75;;;24.97;36.89
22964;BME280;11648;49.306;6.934;2022-09-17T11:40:24;98334.13;;;24.68;35.73
22964;BME280;11648;49.306;6.934;2022-09-17T11:43:06;98330.50;;;26.97;33.18
22964;BME280;11648;49.306;6.934;2022-09-17T11:45:43;98311.44;;;28.08;30.46
22964;BME280;11648;49.306;6.934;2022-09-17T11:48:19;98303.28;;;27.76;30.05
22964;BME280;11648;49.306;6.934;2022-09-17T11:50:52;98318.47;;;26.55;31.83
22964;BME280;11648;49.306;6.934;2022-09-17T11:53:36;98335.22;;;25.29;34.79
22964;BME280;11648;49.306;6.934;2022-09-17T11:56:43;98334.53;;;24.24;36.71
22964;BME280;11648;49.306;6.934;2022-09-17T12:01:44;98310.94;;;27.92;32.20
22964;BME280;11648;49.306;6.934;2022-09-17T12:04:34;98303.09;;;29.74;28.86
22964;BME280;11648;49.306;6.934;2022-09-17T12:15:31;98264.03;;;31.54;23.98
22964;BME280;11648;49.306;6.934;2022-09-17T12:21:01;98267.00;;;30.87;25.43
22964;BME280;11648;49.306;6.934;2022-09-17T12:23:41;98266.94;;;30.69;26.11
22964;BME280;11648;49.306;6.934;2022-09-17T12:28:52;98280.06;;;28.88;26.91
22964;BME280;11648;49.306;6.934;2022-09-17T12:31:52;98278.47;;;27.60;28.87
22964;BME280;11648;49.306;6.934;2022-09-17T12:37:07;98284.69;;;26.03;31.20
22964;BME280;11648;49.306;6.934;2022-09-17T12:56:43;98286.13;;;24.75;32.36
22964;BME280;11648;49.306;6.934;2022-09-17T12:59:17;98286.44;;;24.20;33.42
22964;BME280;11648;49.306;6.934;2022-09-17T13:02:15;98294.19;;;24.24;33.96
22964;BME280;11648;49.306;6.934;2022-09-17T13:05:03;98292.16;;;24.28;33.91
22964;BME280;11648;49.306;6.934;2022-09-17T13:07:53;98282.84;;;24.06;33.37
22964;BME280;11648;49.306;6.934;2022-09-17T13:20:59;98285.00;;;23.34;34.02
22964;BME280;11648;49.306;6.934;2022-09-17T13:23:41;98287.97;;;23.29;33.81
22964;BME280;11648;49.306;6.934;2022-09-17T13:26:10;98291.34;;;23.33;34.57
22964;BME280;11648;49.306;6.934;2022-09-17T13:28:46;98283.38;;;23.45;34.52
22964;BME280;11648;49.306;6.934;2022-09-17T13:36:48;98289.84;;;23.14;35.08
22964;BME280;11648;49.306;6.934;2022-09-17T13:39:47;98292.91;;;23.23;35.62
22964;BME280;11648;49.306;6.934;2022-09-17T13:42:22;98289.78;;;23.02;33.84
22964;BME280;11648;49.306;6.934;2022-09-17T13:45:08;98285.47;;;22.85;34.37
22964;BME280;11648;49.306;6.934;2022-09-17T13:50:30;98291.50;;;22.75;35.14
22964;BME280;11648;49.306;6.934;2022-09-17T13:53:04;98287.44;;;22.53;35.51
22964;BME280;11648;49.306;6.934;2022-09-17T13:55:42;98295.09;;;22.45;35.29
22964;BME280;11648;49.306;6.934;2022-09-17T14:35:15;98327.78;;;22.08;36.92
22964;BME280;11648;49.306;6.934;2022-09-17T14:37:51;98335.59;;;21.97;37.26
22964;BME280;11648;49.306;6.934;2022-09-17T14:40:23;98337.06;;;21.87;37.28
22964;BME280;11648;49.306;6.934;2022-09-17T14:42:54;98333.50;;;21.86;37.82
22964;BME280;11648;49.306;6.934;2022-09-17T14:45:35;98347.91;;;21.70;38.50
22964;BME280;11648;49.306;6.934;2022-09-17T14:48:25;98340.97;;;21.65;41.21
22964;BME280;11648;49.306;6.934;2022-09-17T14:51:10;98340.63;;;21.56;40.82
22964;BME280;11648;49.306;6.934;2022-09-17T14:53:37;98345.38;;;21.66;40.63
22964;BME280;11648;49.306;6.934;2022-09-17T14:56:04;98353.06;;;21.41;40.66
22964;BME280;11648;49.306;6.934;2022-09-17T14:58:34;98351.84;;;21.31;40.55
22964;BME280;11648;49.306;6.934;2022-09-17T15:01:02;98341.56;;;21.24;40.46
22964;BME280;11648;49.306;6.934;2022-09-17T15:03:28;98348.25;;;21.32;40.51
22964;BME280;11648;49.306;6.934;2022-09-17T15:05:55;98346.44;;;21.33;40.81
22964;BME280;11648;49.306;6.934;2022-09-17T15:08:24;98343.66;;;21.18;41.04
22964;BME280;11648;49.306;6.934;2022-09-17T15:11:01;98343.66;;;20.86;41.75
22964;BME280;11648;49.306;6.934;2022-09-17T15:13:41;98348.00;;;21.04;41.82
22964;BME280;11648;49.306;6.934;2022-09-17T15:16:27;98354.38;;;21.18;41.73
22964;BME280;11648;49.306;6.934;2022-09-17T15:19:00;98353.19;;;21.07;42.24
22964;BME280;11648;49.306;6.934;2022-09-17T15:21:36;98356.94;;;21.20;42.40
22964;BME280;11648;49.306;6.934;2022-09-17T15:24:57;98352.13;;;20.94;42.86
22964;BME280;11648;49.306;6.934;2022-09-17T15:29:51;98358.56;;;20.74;43.43
22964;BME280;11648;49.306;6.934;2022-09-17T15:32:19;98361.59;;;20.51;43.41
22964;BME280;11648;49.306;6.934;2022-09-17T15:37:54;98366.03;;;20.16;45.08
22964;BME280;11648;49.306;6.934;2022-09-17T15:40:41;98365.16;;;20.15;45.26
22964;BME280;11648;49.306;6.934;2022-09-17T15:43:24;98362.97;;;20.23;45.10
22964;BME280;11648;49.306;6.934;2022-09-17T15:45:53;98372.34;;;20.15;45.44
22964;BME280;11648;49.306;6.934;2022-09-17T15:50:54;98380.06;;;19.85;46.12
22964;BME280;11648;49.306;6.934;2022-09-17T15:53:28;98372.84;;;19.87;46.34
22964;BME280;11648;49.306;6.934;2022-09-17T15:56:06;98385.03;;;19.93;46.18
22964;BME280;11648;49.306;6.934;2022-09-17T16:08:58;98383.88;;;19.62;45.98
22964;BME280;11648;49.306;6.934;2022-09-17T16:11:30;98386.13;;;19.53;46.17
22964;BME280;11648;49.306;6.934;2022-09-17T16:13:59;98384.59;;;19.47;46.62
22964;BME280;11648;49.306;6.934;2022-09-17T16:16:34;98383.56;;;19.68;46.57
22964;BME280;11648;49.306;6.934;2022-09-17T16:19:05;98386.13;;;19.89;46.48
22964;BME280;11648;49.306;6.934;2022-09-17T16:21:32;98383.25;;;19.93;47.01
22964;BME280;11648;49.306;6.934;2022-09-17T16:23:59;98391.00;;;19.98;47.41
22964;BME280;11648;49.306;6.934;2022-09-17T16:26:29;98390.22;;;19.79;48.16
22964;BME280;11648;49.306;6.934;2022-09-17T16:29:04;98392.09;;;19.39;48.85
22964;BME280;11648;49.306;6.934;2022-09-17T16:31:33;98388.75;;;19.15;49.17
22964;BME280;11648;49.306;6.934;2022-09-17T16:33:59;98393.59;;;19.07;48.92
22964;BME280;11648;49.306;6.934;2022-09-17T16:36:27;98396.00;;;18.93;49.57
22964;BME280;11648;49.306;6.934;2022-09-17T16:38:57;98397.16;;;18.88;49.58
22964;BME280;11648;49.306;6.934;2022-09-17T16:41:24;98404.72;;;18.78;49.75
22964;BME280;11648;49.306;6.934;2022-09-17T16:43:51;98415.38;;;18.58;50.13
22964;BME280;11648;49.306;6.934;2022-09-17T16:46:18;98417.69;;;18.45;50.02
22964;BME280;11648;49.306;6.934;2022-09-17T16:48:48;98425.56;;;18.28;50.58
22964;BME280;11648;49.306;6.934;2022-09-17T16:51:15;98425.75;;;18.44;50.17
22964;BME280;11648;49.306;6.934;2022-09-17T16:53:42;98424.28;;;18.37;50.30
22964;BME280;11648;49.306;6.934;2022-09-17T16:56:11;98422.81;;;18.30;50.29
22964;BME280;11648;49.306;6.934;2022-09-17T16:58:39;98434.28;;;18.32;50.57
22964;BME280;11648;49.306;6.934;2022-09-17T17:01:07;98440.84;;;18.23;50.87
22964;BME280;11648;49.306;6.934;2022-09-17T17:03:35;98450.66;;;18.01;51.22
22964;BME280;11648;49.306;6.934;2022-09-17T17:06:02;98440.75;;;17.83;51.98
22964;BME280;11648;49.306;6.934;2022-09-17T17:08:30;98441.31;;;17.91;51.90
22964;BME280;11648;49.306;6.934;2022-09-17T17:10:57;98438.69;;;17.67;52.83
22964;BME280;11648;49.306;6.934;2022-09-17T17:13:24;98442.19;;;17.69;52.90
22964;BME280;11648;49.306;6.934;2022-09-17T17:15:53;98447.06;;;17.58;53.56
22964;BME280;11648;49.306;6.934;2022-09-17T17:18:21;98446.31;;;17.53;54.00